createdAt,value
2019-03-10T03:07:39.315Z,6.5
2019-03-10T03:08:29.953Z,6.6
2019-03-10T03:09:20.351Z,6.7
2019-03-10T03:10:10.327Z,6.7
2019-03-10T03:11:00.133Z,6.8
2019-03-10T03:11:50.487Z,6.7
2019-03-10T03:12:40.001Z,6.6
2019-03-10T03:13:30.282Z,6.6
2019-03-10T03:14:20.615Z,6.6
2019-03-10T03:15:10.679Z,6.6
2019-03-10T03:16:00.202Z,6.5
2019-03-10T03:16:53.584Z,6.5
2019-03-10T03:17:40.073Z,6.4
2019-03-10T03:18:30.642Z,6.4
2019-03-10T03:19:20.197Z,6.4
2019-03-10T03:20:11.015Z,6.4
2019-03-10T03:21:01.216Z,6.4
2019-03-10T03:21:51.169Z,6.4
2019-03-10T03:22:40.648Z,6.3
2019-03-10T03:23:31.252Z,6.3
2019-03-10T03:24:21.332Z,6.4
2019-03-10T03:25:10.850Z,6.4
2019-03-10T03:26:01.005Z,6.4
2019-03-10T03:26:51.521Z,6.4
2019-03-10T03:27:41.348Z,6.4
2019-03-10T03:28:31.405Z,6.4
2019-03-10T03:29:21.153Z,6.4
2019-03-10T03:30:11.565Z,6.3
2019-03-10T03:31:01.614Z,6.3
2019-03-10T03:31:50.874Z,6.4
2019-03-10T03:32:41.542Z,6.4
2019-03-10T03:33:31.820Z,6.4
2019-03-10T03:34:21.409Z,6.4
2019-03-10T03:35:12.222Z,6.3
2019-03-10T03:36:02.019Z,6.3
2019-03-10T03:36:52.226Z,6.2
2019-03-10T03:37:42.282Z,6.1
2019-03-10T03:38:32.344Z,6.1
2019-03-10T03:39:21.952Z,6.1
2019-03-10T03:40:11.661Z,6
2019-03-10T03:41:02.279Z,5.9
2019-03-10T03:41:52.317Z,5.9
2019-03-10T03:42:42.733Z,5.9
2019-03-10T03:43:32.748Z,5.9
2019-03-10T03:44:22.514Z,6
2019-03-10T03:45:12.633Z,6.1
2019-03-10T03:46:02.373Z,6.4
2019-03-10T03:46:52.745Z,6.6
2019-03-10T03:47:42.435Z,6.6
2019-03-10T03:48:32.828Z,6.6
2019-03-10T03:49:23.143Z,6.5
2019-03-10T03:50:12.425Z,6.6
2019-03-10T03:51:02.723Z,6.6
2019-03-10T03:51:53.150Z,6.6
2019-03-10T03:52:42.282Z,6.4
2019-03-10T03:53:32.901Z,6.3
2019-03-10T03:54:22.701Z,6.3
2019-03-10T03:55:13.350Z,6.3
2019-03-10T03:56:03.074Z,6.6
2019-03-10T03:56:53.410Z,6.7
2019-03-10T03:57:43.453Z,7
2019-03-10T03:58:33.810Z,7.2
2019-03-10T03:59:23.144Z,7.2
2019-03-10T04:00:13.398Z,7.3
2019-03-10T04:01:04.010Z,7.3
2019-03-10T04:01:54.105Z,7.4
2019-03-10T04:02:43.293Z,7.3
2019-03-10T04:03:34.187Z,7.3
2019-03-10T04:04:23.940Z,7.1
2019-03-10T04:05:14.344Z,6.9
2019-03-10T04:06:04.397Z,6.6
2019-03-10T04:06:54.143Z,6.4
2019-03-10T04:07:44.457Z,6.3
2019-03-10T04:08:33.988Z,6.1
2019-03-10T04:09:24.592Z,6
2019-03-10T04:10:14.382Z,5.9
2019-03-10T04:11:04.202Z,5.8
2019-03-10T04:11:54.477Z,5.7
2019-03-10T04:12:43.992Z,5.6
2019-03-10T04:13:34.625Z,5.6
2019-03-10T04:14:24.976Z,5.6
2019-03-10T04:15:14.747Z,5.6
2019-03-10T04:16:04.327Z,5.6
2019-03-10T04:16:54.921Z,5.6
2019-03-10T04:17:44.975Z,5.6
2019-03-10T04:18:35.351Z,5.5
2019-03-10T04:19:24.735Z,5.5
2019-03-10T04:20:14.825Z,5.5
2019-03-10T04:21:04.936Z,5.6
2019-03-10T04:21:55.208Z,5.6
2019-03-10T04:22:45.570Z,5.6
2019-03-10T04:23:35.603Z,5.6
2019-03-10T04:24:24.853Z,5.6
2019-03-10T04:26:05.355Z,5.7
2019-03-10T04:26:55.843Z,5.7
2019-03-10T04:27:45.368Z,5.7
2019-03-10T04:28:36.090Z,5.6
2019-03-10T04:29:26.069Z,5.6
2019-03-10T04:30:16.138Z,5.6
2019-03-10T04:31:05.902Z,5.6
2019-03-10T04:31:56.275Z,5.7
2019-03-10T04:32:46.300Z,5.8
2019-03-10T04:33:36.329Z,5.8
2019-03-10T04:34:25.883Z,5.8
2019-03-10T04:35:15.898Z,5.8
2019-03-10T04:36:06.215Z,5.8
2019-03-10T04:36:56.587Z,5.8
2019-03-10T04:37:46.340Z,5.9
2019-03-10T04:38:36.668Z,5.9
2019-03-10T04:39:25.920Z,5.8
2019-03-10T04:40:16.290Z,5.8
2019-03-10T04:41:06.876Z,5.8
2019-03-10T04:41:56.647Z,5.8
2019-03-10T04:42:46.429Z,5.8
2019-03-10T04:43:37.037Z,5.7
2019-03-10T04:44:26.837Z,5.8
2019-03-10T04:45:17.164Z,5.8
2019-03-10T04:46:06.694Z,5.7
2019-03-10T04:46:57.282Z,5.8
2019-03-10T04:47:47.348Z,5.8
2019-03-10T04:48:37.408Z,5.9
2019-03-10T04:49:27.472Z,5.9
2019-03-10T04:50:19.540Z,5.9
2019-03-10T04:51:07.309Z,5.9
2019-03-10T04:51:57.080Z,5.9
2019-03-10T04:52:47.156Z,5.9
2019-03-10T04:53:37.797Z,6.1
2019-03-10T04:54:27.571Z,6.1
2019-03-10T04:55:17.603Z,6
2019-03-10T04:56:07.689Z,6.1
2019-03-10T04:57:00.202Z,6.1
2019-03-10T04:57:47.789Z,6.1
2019-03-10T04:58:37.851Z,6.1
2019-03-10T04:59:27.914Z,6.1
2019-03-10T05:00:17.982Z,6.1
2019-03-10T05:01:08.301Z,6.1
2019-03-10T05:01:58.095Z,6.1
2019-03-10T05:02:48.165Z,6.1
2019-03-10T05:03:38.216Z,6.1
2019-03-10T05:04:28.282Z,6.1
2019-03-10T05:05:18.060Z,6.1
2019-03-10T05:06:08.708Z,6
2019-03-10T05:06:58.459Z,6.1
2019-03-10T05:07:48.523Z,6.1
2019-03-10T05:08:38.565Z,6
2019-03-10T05:09:28.637Z,6.1
2019-03-10T05:10:18.458Z,6.1
2019-03-10T05:11:08.812Z,6.2
2019-03-10T05:11:58.828Z,6.2
2019-03-10T05:12:48.889Z,6.3
2019-03-10T05:13:39.230Z,6.3
2019-03-10T05:14:29.268Z,6.3
2019-03-10T05:15:19.086Z,6.3
2019-03-10T05:16:09.172Z,6.3
2019-03-10T05:16:59.170Z,6.4
2019-03-10T05:17:49.230Z,6.4
2019-03-10T05:18:38.753Z,6.4
2019-03-10T05:19:28.817Z,6.6
2019-03-10T05:20:19.685Z,6.6
2019-03-10T05:21:09.532Z,6.6
2019-03-10T05:21:59.532Z,6.6
2019-03-10T05:22:49.595Z,6.6
2019-03-10T05:23:39.681Z,6.7
2019-03-10T05:24:29.215Z,6.6
2019-03-10T05:25:20.027Z,6.7
2019-03-10T05:26:09.371Z,6.7
2019-03-10T05:26:59.912Z,6.8
2019-03-10T05:27:49.686Z,6.8
2019-03-10T05:28:40.302Z,6.8
2019-03-10T05:29:30.360Z,6.9
2019-03-10T05:30:20.415Z,6.9
2019-03-10T05:31:10.274Z,7
2019-03-10T05:32:00.534Z,7.1
2019-03-10T05:32:50.379Z,7.1
2019-03-10T05:33:40.385Z,7.1
2019-03-10T05:34:30.436Z,7.1
2019-03-10T05:35:20.524Z,7.2
2019-03-10T05:36:10.571Z,7.1
2019-03-10T05:37:00.624Z,7.2
2019-03-10T05:37:50.692Z,7.2
2019-03-10T05:38:41.031Z,7.3
2019-03-10T05:39:30.794Z,7.3
2019-03-10T05:40:20.856Z,7.3
2019-03-10T05:41:10.093Z,7.3
2019-03-10T05:42:00.798Z,7.3
2019-03-10T05:42:51.325Z,7.4
2019-03-10T05:43:41.397Z,7.3
2019-03-10T05:44:31.448Z,7.4
2019-03-10T05:45:21.223Z,7.4
2019-03-10T05:46:11.333Z,7.4
2019-03-10T05:47:01.342Z,7.4
2019-03-10T05:47:51.711Z,7.4
2019-03-10T05:48:41.862Z,7.4
2019-03-10T05:49:31.519Z,7.4
2019-03-10T05:50:21.586Z,7.4
2019-03-10T05:51:11.373Z,7.4
2019-03-10T05:52:01.438Z,7.4
2019-03-10T05:52:52.108Z,7.4
2019-03-10T05:53:41.270Z,7.4
2019-03-10T05:54:31.903Z,7.4
2019-03-10T05:55:22.230Z,7.4
2019-03-10T05:56:12.033Z,7.4
2019-03-10T05:57:02.073Z,7.5
2019-03-10T05:57:52.151Z,7.6
2019-03-10T05:58:42.263Z,7.7
2019-03-10T05:59:32.013Z,7.8
2019-03-10T06:00:22.321Z,7.8
2019-03-10T06:01:12.667Z,7.8
2019-03-10T06:02:02.733Z,7.9
2019-03-10T06:02:51.930Z,8
2019-03-10T06:03:42.545Z,8.2
2019-03-10T06:05:39.467Z,8.4
2019-03-10T06:06:29.770Z,8.5
2019-03-10T06:07:19.817Z,8.7
2019-03-10T06:08:10.149Z,8.8
2019-03-10T06:08:59.712Z,8.8
2019-03-10T06:09:50.282Z,8.8
2019-03-10T06:10:40.340Z,8.8
2019-03-10T06:11:30.392Z,8.9
2019-03-10T06:12:20.492Z,8.9
2019-03-10T06:13:09.958Z,9.1
2019-03-10T06:14:00.294Z,9.2
2019-03-10T06:14:50.379Z,9.3
2019-03-10T06:15:40.409Z,9.3
2019-03-10T06:16:30.739Z,9.4
2019-03-10T06:17:22.302Z,9.6
2019-03-10T06:18:16.342Z,9.6
2019-03-10T06:19:00.924Z,9.8
2019-03-10T06:19:51.009Z,9.8
2019-03-10T06:20:41.054Z,9.9
2019-03-10T06:21:30.864Z,9.9
2019-03-10T06:22:20.887Z,9.9
2019-03-10T06:23:10.685Z,10
2019-03-10T06:24:01.006Z,10.1
2019-03-10T06:24:50.817Z,10.3
2019-03-10T06:25:40.653Z,10.3
2019-03-10T06:26:31.479Z,10.4
2019-03-10T06:27:21.541Z,10.3
2019-03-10T06:28:11.061Z,10.4
2019-03-10T06:29:01.389Z,10.5
2019-03-10T06:29:51.446Z,10.6
2019-03-10T06:30:41.783Z,10.7
2019-03-10T06:31:31.571Z,10.9
2019-03-10T06:32:21.630Z,10.9
2019-03-10T06:33:11.391Z,11
2019-03-10T06:34:02.076Z,11.1
2019-03-10T06:34:51.813Z,11.3
2019-03-10T06:35:41.580Z,11.2
2019-03-10T06:36:31.645Z,11.3
2019-03-10T06:37:21.983Z,11.4
2019-03-10T06:38:12.034Z,11.5
2019-03-10T06:39:01.898Z,11.6
2019-03-10T06:39:51.887Z,11.6
2019-03-10T06:40:42.248Z,11.6
2019-03-10T06:41:32.005Z,11.9
2019-03-10T06:42:22.345Z,12
2019-03-10T06:43:12.662Z,12
2019-03-10T06:44:02.729Z,12
2019-03-10T06:44:52.571Z,12.2
2019-03-10T06:45:42.579Z,12
2019-03-10T06:46:32.645Z,12.1
2019-03-10T06:47:22.693Z,12.1
2019-03-10T06:48:12.198Z,12.2
2019-03-10T06:49:02.818Z,12.2
2019-03-10T06:49:52.855Z,12.1
2019-03-10T06:50:42.953Z,12.2
2019-03-10T06:51:33.005Z,12.3
2019-03-10T06:52:23.359Z,12.3
2019-03-10T06:53:13.452Z,12.2
2019-03-10T06:54:03.465Z,12.4
2019-03-10T06:54:53.024Z,12.6
2019-03-10T06:55:43.308Z,12.6
2019-03-10T06:56:33.630Z,12.7
2019-03-10T06:57:23.420Z,12.6
2019-03-10T06:58:12.931Z,12.8
2019-03-10T06:59:03.534Z,12.9
2019-03-10T06:59:53.977Z,12.9
2019-03-10T07:00:43.978Z,13.1
2019-03-10T07:01:33.729Z,13.2
2019-03-10T07:02:24.051Z,13.2
2019-03-10T07:03:13.845Z,13.1
2019-03-10T07:05:54.299Z,13.4
2019-03-10T07:06:29.767Z,13.4
2019-03-10T07:07:19.779Z,13.4
2019-03-10T07:08:09.575Z,13.4
2019-03-10T07:09:00.171Z,13.5
2019-03-10T07:09:50.230Z,13.4
2019-03-10T07:10:40.019Z,13.6
2019-03-10T07:11:30.408Z,13.6
2019-03-10T07:12:20.416Z,13.6
2019-03-10T07:13:10.480Z,13.4
2019-03-10T07:13:59.976Z,13.2
2019-03-10T07:14:50.601Z,13.3
2019-03-10T07:15:39.553Z,13.1
2019-03-10T07:16:30.174Z,13.1
2019-03-10T07:17:20.492Z,13.3
2019-03-10T07:18:10.003Z,13.3
2019-03-10T07:19:00.953Z,13.3
2019-03-10T07:19:50.391Z,13.4
2019-03-10T07:20:40.740Z,13.3
2019-03-10T07:21:29.941Z,13.3
2019-03-10T07:22:20.853Z,13.5
2019-03-10T07:23:11.233Z,13.6
2019-03-10T07:24:00.706Z,13.6
2019-03-10T07:24:51.021Z,13.8
2019-03-10T07:25:40.823Z,13.8
2019-03-10T07:26:31.203Z,14
2019-03-10T07:27:21.201Z,14.1
2019-03-10T07:28:11.548Z,14.1
2019-03-10T07:29:01.041Z,14.1
2019-03-10T07:29:51.390Z,14.3
2019-03-10T07:30:41.441Z,14.4
2019-03-10T07:31:31.500Z,14.1
2019-03-10T07:32:21.640Z,13.9
2019-03-10T07:33:11.635Z,13.9
2019-03-10T07:34:01.687Z,13.9
2019-03-10T07:34:52.012Z,14.1
2019-03-10T07:35:41.814Z,14.3
2019-03-10T07:36:31.872Z,14.4
2019-03-10T07:37:21.932Z,14.5
2019-03-10T07:38:11.989Z,14.4
2019-03-10T07:39:02.047Z,14.3
2019-03-10T07:39:51.580Z,14.2
2019-03-10T07:40:41.352Z,14.3
2019-03-10T07:41:32.237Z,14.4
2019-03-10T07:42:22.565Z,14.6
2019-03-10T07:43:12.355Z,14.8
2019-03-10T07:44:02.707Z,15
2019-03-10T07:44:52.756Z,15.3
2019-03-10T07:45:42.512Z,15.3
2019-03-10T07:46:32.879Z,15.4
2019-03-10T07:47:22.665Z,15.3
2019-03-10T07:48:12.441Z,15.1
2019-03-10T07:49:03.072Z,15.2
2019-03-10T07:49:52.564Z,15.2
2019-03-10T07:50:42.618Z,15.1
2019-03-10T07:51:33.224Z,15
2019-03-10T07:52:23.449Z,15.2
2019-03-10T07:53:13.348Z,15.4
2019-03-10T07:54:02.856Z,15.3
2019-03-10T07:54:53.456Z,15.6
2019-03-10T07:55:43.249Z,15.6
2019-03-10T07:56:33.063Z,15.7
2019-03-10T07:57:23.174Z,15.9
2019-03-10T07:58:13.161Z,16
2019-03-10T07:59:03.262Z,16.1
2019-03-10T07:59:53.293Z,16.1
2019-03-10T08:00:43.956Z,16.1
2019-03-10T08:01:33.698Z,16.3
2019-03-10T08:02:23.473Z,16.1
2019-03-10T08:03:13.813Z,16.1
2019-03-10T08:04:03.934Z,16.1
2019-03-10T08:04:53.715Z,16.3
2019-03-10T08:05:43.999Z,16.3
2019-03-10T08:06:33.503Z,15.6
2019-03-10T08:07:24.166Z,15.3
2019-03-10T08:08:13.436Z,15.6
2019-03-10T08:09:04.510Z,16
2019-03-10T08:09:54.573Z,16.1
2019-03-10T08:10:44.060Z,16.3
2019-03-10T08:11:33.848Z,16.4
2019-03-10T08:12:24.452Z,16.7
2019-03-10T08:13:14.250Z,16.8
2019-03-10T08:14:04.090Z,16.7
2019-03-10T08:14:54.917Z,16.8
2019-03-10T08:15:44.713Z,16.9
2019-03-10T08:16:34.497Z,17.1
2019-03-10T08:17:27.255Z,17.3
2019-03-10T08:18:14.610Z,17.4
2019-03-10T08:19:04.705Z,17.6
2019-03-10T08:19:55.029Z,17.6
2019-03-10T08:20:45.346Z,17.4
2019-03-10T08:21:35.133Z,17.4
2019-03-10T08:22:24.923Z,17.2
2019-03-10T08:23:15.269Z,17.2
2019-03-10T08:24:05.587Z,16.5
2019-03-10T08:24:55.369Z,16.4
2019-03-10T08:25:45.159Z,16.5
2019-03-10T08:26:35.759Z,16.9
2019-03-10T08:27:25.849Z,17.3
2019-03-10T08:28:15.609Z,17.1
2019-03-10T08:29:05.949Z,16.9
2019-03-10T08:29:55.719Z,16.9
2019-03-10T08:30:45.556Z,16.7
2019-03-10T08:31:35.857Z,16.9
2019-03-10T08:32:25.110Z,16.7
2019-03-10T08:33:15.727Z,17.2
2019-03-10T08:34:06.049Z,17.4
2019-03-10T08:34:56.379Z,17.3
2019-03-10T08:35:45.929Z,17.1
2019-03-10T08:36:36.504Z,16.5
2019-03-10T08:37:26.553Z,16.2
2019-03-10T08:38:16.634Z,16.1
2019-03-10T08:39:05.877Z,16.1
2019-03-10T08:39:56.503Z,16.3
2019-03-10T08:40:46.524Z,16.4
2019-03-10T08:41:36.874Z,16.8
2019-03-10T08:42:26.421Z,16.8
2019-03-10T08:43:17.021Z,16.8
2019-03-10T08:44:07.032Z,16.6
2019-03-10T08:44:56.798Z,16.6
2019-03-10T08:45:47.206Z,16.9
2019-03-10T08:46:36.931Z,16.9
2019-03-10T08:47:26.193Z,17.2
2019-03-10T08:48:17.334Z,17.1
2019-03-10T08:49:07.145Z,16.7
2019-03-10T08:49:57.200Z,16.6
2019-03-10T08:50:47.530Z,16.6
2019-03-10T08:51:37.319Z,16.8
2019-03-10T08:52:27.632Z,16.8
2019-03-10T08:53:17.702Z,16.8
2019-03-10T08:54:07.485Z,16.9
2019-03-10T08:54:57.818Z,16.6
2019-03-10T08:55:47.125Z,16.6
2019-03-10T08:56:37.446Z,16.4
2019-03-10T08:57:28.074Z,16.7
2019-03-10T08:58:17.782Z,16.7
2019-03-10T08:59:08.177Z,16.9
2019-03-10T08:59:57.622Z,17.2
2019-03-10T09:00:47.740Z,17.3
2019-03-10T09:01:37.805Z,17.3
2019-03-10T09:02:28.087Z,17.3
2019-03-10T09:03:17.677Z,17.6
2019-03-10T09:04:08.484Z,17.4
2019-03-10T09:04:58.282Z,17.9
2019-03-10T09:05:48.315Z,18.4
2019-03-10T09:06:38.654Z,18.4
2019-03-10T09:07:28.719Z,17.9
2019-03-10T09:08:18.505Z,17.1
2019-03-10T09:09:08.852Z,16.7
2019-03-10T09:09:58.918Z,16.8
2019-03-10T09:12:28.526Z,16.9
2019-03-10T09:13:18.875Z,16.7
2019-03-10T09:14:08.662Z,17.1
2019-03-10T09:14:59.048Z,16.7
2019-03-10T09:15:48.226Z,16.4
2019-03-10T09:16:39.386Z,16.4
2019-03-10T09:17:29.483Z,16.6
2019-03-10T09:18:18.967Z,16.8
2019-03-10T09:19:09.019Z,16.8
2019-03-10T09:19:59.093Z,16.7
2019-03-10T09:20:49.426Z,16.8
2019-03-10T09:21:39.539Z,16.9
2019-03-10T09:22:29.552Z,17.4
2019-03-10T09:23:19.881Z,17.7
2019-03-10T09:24:09.949Z,17.8
2019-03-10T09:25:00.002Z,17.8
2019-03-10T09:25:50.104Z,17.7
2019-03-10T09:26:39.284Z,17.3
2019-03-10T09:27:31.054Z,17.4
2019-03-10T09:28:20.264Z,17.2
2019-03-10T09:30:00.489Z,17.3
2019-03-10T09:30:49.881Z,17.8
2019-03-10T09:31:40.201Z,17.8
2019-03-10T09:32:30.309Z,17.9
2019-03-10T09:33:20.618Z,17.4
2019-03-10T09:34:09.909Z,17.4
2019-03-10T09:35:00.952Z,17.7
2019-03-10T09:35:50.493Z,17.8
2019-03-10T09:36:40.555Z,17.6
2019-03-10T09:37:30.360Z,17.7
2019-03-10T09:38:20.963Z,17.7
2019-03-10T09:39:10.478Z,18
2019-03-10T09:40:01.321Z,17.8
2019-03-10T09:40:50.882Z,17.8
2019-03-10T09:41:40.947Z,18.2
2019-03-10T09:43:21.365Z,18.8
2019-03-10T09:44:11.124Z,18.3
2019-03-10T09:45:01.275Z,18.2
2019-03-10T09:45:51.243Z,18
2019-03-10T09:46:41.348Z,18.4
2019-03-10T09:47:30.827Z,18.9
2019-03-10T09:48:21.429Z,18.8
2019-03-10T09:49:11.757Z,18.4
2019-03-10T09:50:01.700Z,18.4
2019-03-10T09:50:51.603Z,18.4
2019-03-10T09:51:41.654Z,18.5
2019-03-10T09:52:31.709Z,18.4
2019-03-10T09:53:21.782Z,18.8
2019-03-10T09:54:12.127Z,19.2
2019-03-10T09:55:04.121Z,19.1
2019-03-10T09:55:51.968Z,18.5
2019-03-10T09:56:41.742Z,18.3
2019-03-10T09:57:31.804Z,18.3
2019-03-10T09:58:22.154Z,18.5
2019-03-10T09:59:12.477Z,18.2
2019-03-10T10:00:02.761Z,18.1
2019-03-10T10:00:52.586Z,18.3
2019-03-10T10:01:42.116Z,18.4
2019-03-10T10:02:32.170Z,18.3
2019-03-10T10:03:22.768Z,18.6
2019-03-10T10:06:39.558Z,19.1
2019-03-10T10:07:28.776Z,18.9
2019-03-10T10:08:19.774Z,18.8
2019-03-10T10:09:09.431Z,18.4
2019-03-10T10:09:59.228Z,18.9
2019-03-10T10:10:49.819Z,18.9
2019-03-10T10:11:39.886Z,19.4
2019-03-10T10:12:29.663Z,19.4
2019-03-10T10:13:20.301Z,19.6
2019-03-10T10:14:10.328Z,19.7
2019-03-10T10:14:59.846Z,19.6
2019-03-10T10:15:50.450Z,20
2019-03-10T10:16:39.961Z,20.2
2019-03-10T10:17:30.296Z,20.1
2019-03-10T10:18:20.073Z,19.9
2019-03-10T10:19:10.769Z,20.1
2019-03-10T10:20:00.546Z,20.1
2019-03-10T10:20:50.813Z,20.1
2019-03-10T10:21:40.317Z,20.2
2019-03-10T10:22:30.396Z,19.6
2019-03-10T10:23:20.451Z,19.5
2019-03-10T10:24:10.510Z,19.4
2019-03-10T10:25:00.867Z,19.1
2019-03-10T10:25:50.438Z,19.3
2019-03-10T10:26:40.520Z,19.6
2019-03-10T10:27:30.560Z,19.8
2019-03-10T10:28:20.342Z,20.1
2019-03-10T10:29:10.682Z,20.5
2019-03-10T10:30:00.712Z,21
2019-03-10T10:30:50.520Z,20.8
2019-03-10T10:31:40.625Z,20.3
2019-03-10T10:32:31.185Z,20.5
2019-03-10T10:33:21.009Z,20.8
2019-03-10T10:34:11.512Z,19.9
2019-03-10T10:35:01.509Z,19.9
2019-03-10T10:35:51.352Z,19.6
2019-03-10T10:36:41.170Z,19.3
2019-03-10T10:37:31.473Z,19.2
2019-03-10T10:38:21.955Z,18.9
2019-03-10T10:39:11.869Z,18.8
2019-03-10T10:40:02.462Z,19.4
2019-03-10T10:40:51.989Z,19.6
2019-03-10T10:41:42.042Z,19.9
2019-03-10T10:42:32.397Z,19.9
2019-03-10T10:43:21.968Z,20.1
2019-03-10T10:44:11.962Z,19.9
2019-03-10T10:45:02.122Z,19.6
2019-03-10T10:45:54.931Z,19.8
2019-03-10T10:46:42.696Z,19.6
2019-03-10T10:47:32.505Z,19.8
2019-03-10T10:48:22.242Z,20.1
2019-03-10T10:49:12.641Z,20.5
2019-03-10T10:50:03.043Z,20.2
2019-03-10T10:50:52.516Z,20.4
2019-03-10T10:51:43.161Z,20.4
2019-03-10T10:52:32.938Z,20
2019-03-10T10:53:24.344Z,20.1
2019-03-10T10:54:13.058Z,19.8
2019-03-10T10:55:03.292Z,19.9
2019-03-10T10:55:53.155Z,20.1
2019-03-10T10:56:43.630Z,20.4
2019-03-10T10:57:33.048Z,20.7
2019-03-10T10:58:23.554Z,20.4
2019-03-10T10:59:13.333Z,19.7
2019-03-10T11:00:03.390Z,19.4
2019-03-10T11:00:53.724Z,19.6
2019-03-10T11:01:43.243Z,20.2
2019-03-10T11:02:33.835Z,20.6
2019-03-10T11:03:23.676Z,20.7
2019-03-10T11:04:13.958Z,20.1
2019-03-10T11:05:03.486Z,19.9
2019-03-10T11:05:54.090Z,19.9
2019-03-10T11:06:43.868Z,19.8
2019-03-10T11:07:33.913Z,19.6
2019-03-10T11:08:24.057Z,20.1
2019-03-10T11:09:13.791Z,20.6
2019-03-10T11:10:04.410Z,20.4
2019-03-10T11:10:53.942Z,20.3
2019-03-10T11:11:44.590Z,20.5
2019-03-10T11:12:34.286Z,20.6
2019-03-10T11:13:24.427Z,20.4
2019-03-10T11:14:14.140Z,20.5
2019-03-10T11:15:04.782Z,21.1
2019-03-10T11:16:46.938Z,21.2
2019-03-10T11:17:34.100Z,20.7
2019-03-10T11:18:24.714Z,20.8
2019-03-10T11:19:14.508Z,20.6
2019-03-10T11:20:04.585Z,20.6
2019-03-10T11:20:57.754Z,20.8
2019-03-10T11:21:44.975Z,21.3
2019-03-10T11:23:25.074Z,20.4
2019-03-10T11:24:15.140Z,19.8
2019-03-10T11:25:04.935Z,19.8
2019-03-10T11:25:55.052Z,20.1
2019-03-10T11:26:45.040Z,20.1
2019-03-10T11:27:34.917Z,20.3
2019-03-10T11:28:25.242Z,20.3
2019-03-10T11:29:15.302Z,19.8
2019-03-10T11:30:04.544Z,19.9
2019-03-10T11:30:54.887Z,20.1
2019-03-10T11:31:45.234Z,19.8
2019-03-10T11:32:35.542Z,19.1
2019-03-10T11:33:28.166Z,19.2
2019-03-10T11:34:15.392Z,19.8
2019-03-10T11:35:05.689Z,19.6
2019-03-10T11:35:55.940Z,19.8
2019-03-10T11:36:45.304Z,20.3
2019-03-10T11:37:35.657Z,20.8
2019-03-10T11:38:26.181Z,20.6
2019-03-10T11:39:15.769Z,20.4
2019-03-10T11:40:05.954Z,20
2019-03-10T11:40:56.349Z,19.9
2019-03-10T11:41:49.054Z,20.3
2019-03-10T11:42:36.766Z,20.7
2019-03-10T11:43:26.626Z,21.1
2019-03-10T11:44:16.908Z,21.6
2019-03-10T11:45:06.656Z,22.1
2019-03-10T11:46:46.799Z,20.9
2019-03-10T11:47:36.879Z,20.6
2019-03-10T11:48:27.215Z,20.4
2019-03-10T11:49:16.984Z,20.5
2019-03-10T11:50:07.409Z,20.5
2019-03-10T11:50:57.375Z,20.7
2019-03-10T11:51:46.971Z,20.4
2019-03-10T11:52:36.946Z,20.1
2019-03-10T11:53:28.576Z,20.1
2019-03-10T11:54:17.365Z,20.4
2019-03-10T11:55:07.776Z,20.7
2019-03-10T11:55:57.750Z,20.6
2019-03-10T11:56:47.820Z,20.3
2019-03-10T11:57:37.612Z,20.7
2019-03-10T11:58:30.356Z,20.9
2019-03-10T12:00:07.531Z,21.3
2019-03-10T12:00:57.871Z,21.4
2019-03-10T12:01:48.170Z,20.9
2019-03-10T12:02:37.962Z,20.8
2019-03-10T12:03:27.448Z,20.7
2019-03-10T12:04:17.815Z,21.4
2019-03-10T12:06:39.442Z,21.6
2019-03-10T12:07:29.234Z,21.7
2019-03-10T12:08:19.614Z,21.4
2019-03-10T12:09:09.357Z,21.6
2019-03-10T12:09:59.982Z,22
2019-03-10T12:10:49.740Z,21.8
2019-03-10T12:11:39.534Z,22
2019-03-10T12:12:29.860Z,21.9
2019-03-10T12:13:19.928Z,21.3
2019-03-10T12:14:09.972Z,21.3
2019-03-10T12:15:00.163Z,21
2019-03-10T12:15:50.114Z,20.6
2019-03-10T12:16:40.157Z,19.9
2019-03-10T12:17:30.224Z,20.3
2019-03-10T12:18:20.358Z,20.1
2019-03-10T12:19:10.354Z,19.8
2019-03-10T12:20:00.569Z,19.7
2019-03-10T12:20:50.760Z,19.6
2019-03-10T12:21:40.814Z,19.9
2019-03-10T12:22:30.582Z,19.8
2019-03-10T12:23:20.649Z,19.6
2019-03-10T12:24:10.816Z,19.9
2019-03-10T12:25:01.014Z,20.3
2019-03-10T12:25:51.124Z,20.5
2019-03-10T12:26:41.193Z,20.6
2019-03-10T12:27:31.296Z,20.1
2019-03-10T12:28:20.999Z,20.3
2019-03-10T12:29:10.796Z,20.1
2019-03-10T12:30:01.296Z,19.9
2019-03-10T12:30:50.912Z,19.7
2019-03-10T12:31:41.566Z,19.6
2019-03-10T12:32:30.749Z,19.8
2019-03-10T12:33:21.201Z,20.1
2019-03-10T12:34:11.473Z,20.3
2019-03-10T12:35:01.315Z,20.1
2019-03-10T12:35:51.559Z,20.3
2019-03-10T12:36:41.878Z,20.4
2019-03-10T12:37:31.942Z,20.3
2019-03-10T12:38:22.013Z,20
2019-03-10T12:39:11.500Z,19.9
2019-03-10T12:40:02.275Z,20
2019-03-10T12:40:51.920Z,19.9
2019-03-10T12:41:41.973Z,19.9
2019-03-10T12:42:32.310Z,20
2019-03-10T12:43:21.865Z,19.8
2019-03-10T12:44:12.152Z,20.1
2019-03-10T12:45:02.538Z,20.1
2019-03-10T12:45:52.550Z,19.9
2019-03-10T12:46:42.623Z,20.1
2019-03-10T12:47:31.655Z,20.4
2019-03-10T12:48:22.722Z,20.4
2019-03-10T12:49:12.811Z,20.1
2019-03-10T12:50:02.382Z,20.2
2019-03-10T12:50:52.655Z,20.3
2019-03-10T12:51:42.422Z,20.5
2019-03-10T12:52:32.750Z,20.9
2019-03-10T12:53:22.830Z,21.3
2019-03-10T12:54:12.597Z,21.9
2019-03-10T12:55:03.320Z,21.4
2019-03-10T12:55:52.748Z,21.6
2019-03-10T12:56:43.780Z,21.7
2019-03-10T12:57:33.143Z,21.2
2019-03-10T12:58:23.464Z,20.6
2019-03-10T12:59:12.464Z,19.9
2019-03-10T13:00:03.084Z,20
2019-03-10T13:00:53.709Z,20.5
2019-03-10T13:01:43.727Z,20.4
2019-03-10T13:02:33.500Z,20.5
2019-03-10T13:03:23.839Z,20.6
2019-03-10T13:04:13.336Z,21
2019-03-10T13:05:03.736Z,21.2
2019-03-10T13:05:53.486Z,20.7
2019-03-10T13:06:43.790Z,20.7
2019-03-10T13:07:34.141Z,20.8
2019-03-10T13:08:23.434Z,21.5
2019-03-10T13:09:13.976Z,21.5
2019-03-10T13:10:04.042Z,21.6
2019-03-10T13:10:54.094Z,21.6
2019-03-10T13:11:44.463Z,21.9
2019-03-10T13:12:34.251Z,22.2
2019-03-10T13:13:23.741Z,21.8
2019-03-10T13:14:14.621Z,21.3
2019-03-10T13:15:04.351Z,20.9
2019-03-10T13:15:54.473Z,20.8
2019-03-10T13:16:44.283Z,21.4
2019-03-10T13:17:34.606Z,21.5
2019-03-10T13:18:24.176Z,20.5
2019-03-10T13:19:15.073Z,20.8
2019-03-10T13:20:04.825Z,21.1
2019-03-10T13:20:55.113Z,21.2
2019-03-10T13:21:45.490Z,21.4
2019-03-10T13:22:35.241Z,21.3
2019-03-10T13:23:25.015Z,21.8
2019-03-10T13:24:15.077Z,21.7
2019-03-10T13:25:04.872Z,21.4
2019-03-10T13:25:54.941Z,20.9
2019-03-10T13:26:45.559Z,20.6
2019-03-10T13:27:34.575Z,20.7
2019-03-10T13:28:25.455Z,20.3
2019-03-10T13:29:15.464Z,20.4
2019-03-10T13:30:05.514Z,20.4
2019-03-10T13:30:55.585Z,20.3
2019-03-10T13:31:45.902Z,20.6
2019-03-10T13:32:35.695Z,20.4
2019-03-10T13:33:25.760Z,20.3
2019-03-10T13:34:15.350Z,20.4
2019-03-10T13:35:05.601Z,20.4
2019-03-10T13:35:58.534Z,20.9
2019-03-10T13:36:45.490Z,20.9
2019-03-10T13:37:36.047Z,20.6
2019-03-10T13:38:26.104Z,20.4
2019-03-10T13:39:16.165Z,20.9
2019-03-10T13:40:06.521Z,20.9
2019-03-10T13:40:56.562Z,20.3
2019-03-10T13:41:46.631Z,20.6
2019-03-10T13:42:35.854Z,20.6
2019-03-10T13:43:26.482Z,20.8
2019-03-10T13:44:16.532Z,21.1
2019-03-10T13:45:06.659Z,20.8
2019-03-10T13:45:56.399Z,20.6
2019-03-10T13:46:47.045Z,20.8
2019-03-10T13:47:37.074Z,20.7
2019-03-10T13:48:27.132Z,20.5
2019-03-10T13:49:16.336Z,20.4
2019-03-10T13:50:06.719Z,20.6
2019-03-10T13:50:57.296Z,20.6
2019-03-10T13:51:46.517Z,20.8
2019-03-10T13:52:36.900Z,20.8
2019-03-10T13:53:27.196Z,20.9
2019-03-10T13:54:17.558Z,21.2
2019-03-10T13:55:07.323Z,20.9
2019-03-10T13:55:57.126Z,21
2019-03-10T13:56:47.458Z,21.2
2019-03-10T13:57:37.798Z,20.8
2019-03-10T13:58:27.283Z,20.6
2019-03-10T13:59:17.357Z,20.8
2019-03-10T14:00:07.978Z,20.8
2019-03-10T14:00:58.024Z,20.7
2019-03-10T14:01:46.986Z,20.5
2019-03-10T14:02:37.866Z,20.4
2019-03-10T14:03:27.364Z,20.3
2019-03-10T14:04:17.992Z,20.5
2019-03-10T14:05:07.798Z,20.3
2019-03-10T14:07:39.669Z,20.5
2019-03-10T14:08:29.660Z,20.6
2019-03-10T14:09:19.443Z,20.8
2019-03-10T14:10:12.275Z,20.9
2019-03-10T14:11:49.343Z,21.2
2019-03-10T14:12:39.801Z,21.3
2019-03-10T14:13:29.773Z,21.3
2019-03-10T14:14:20.097Z,21.2
2019-03-10T14:15:59.730Z,20.8
2019-03-10T14:16:49.740Z,20.7
2019-03-10T14:17:39.839Z,20.6
2019-03-10T14:18:30.125Z,21
2019-03-10T14:19:20.176Z,20.9
2019-03-10T14:20:10.514Z,20.9
2019-03-10T14:21:50.386Z,21
2019-03-10T14:22:40.128Z,20.9
2019-03-10T14:23:30.493Z,20.9
2019-03-10T14:24:20.817Z,20.8
2019-03-10T14:25:10.904Z,20.5
2019-03-10T14:26:01.020Z,20.3
2019-03-10T14:26:50.726Z,20.5
2019-03-10T14:27:40.775Z,20.4
2019-03-10T14:28:30.562Z,20.4
2019-03-10T14:29:20.899Z,20.1
2019-03-10T14:30:10.974Z,20.1
2019-03-10T14:31:01.031Z,20.1
2019-03-10T14:31:51.096Z,20
2019-03-10T14:32:41.493Z,19.9
2019-03-10T14:33:31.223Z,19.8
2019-03-10T14:34:20.461Z,19.8
2019-03-10T14:36:01.409Z,19.7
2019-03-10T14:36:51.472Z,19.7
2019-03-10T14:37:40.981Z,19.8
2019-03-10T14:38:31.979Z,19.7
2019-03-10T14:39:21.919Z,19.7
2019-03-10T14:40:11.694Z,19.7
2019-03-10T14:41:01.769Z,19.6